createdAt,value
2019-03-30T00:02:28.993Z,68.23
2019-03-30T00:05:01.297Z,67.42
2019-03-30T00:07:33.617Z,67.31
2019-03-30T00:10:05.958Z,67.20
2019-03-30T00:12:38.261Z,67.11
2019-03-30T00:15:10.587Z,67.00
2019-03-30T00:17:42.970Z,67.29
2019-03-30T00:20:15.207Z,67.29
2019-03-30T00:22:47.459Z,67.25
2019-03-30T00:25:19.696Z,66.90
2019-03-30T00:27:51.974Z,67.00
2019-03-30T00:30:24.277Z,67.10
2019-03-30T00:32:56.440Z,67.33
2019-03-30T00:35:28.545Z,67.52
2019-03-30T00:38:00.749Z,67.71
2019-03-30T00:40:34.813Z,67.65
2019-03-30T00:43:08.814Z,67.69
2019-03-30T00:45:42.798Z,68.14
2019-03-30T00:48:27.153Z,68.16
2019-03-30T00:51:15.302Z,68.64
2019-03-30T00:53:59.521Z,68.93
2019-03-30T00:56:43.744Z,68.94
2019-03-30T00:59:32.001Z,69.00
2019-03-30T01:02:20.232Z,68.83
2019-03-30T01:05:09.568Z,68.81
2019-03-30T01:07:57.703Z,68.98
2019-03-30T01:10:45.984Z,69.17
2019-03-30T01:13:40.163Z,68.89
2019-03-30T01:16:28.458Z,69.03
2019-03-30T01:19:03.514Z,68.89
2019-03-30T01:21:51.885Z,69.67
2019-03-30T01:24:26.413Z,69.44
2019-03-30T01:27:00.486Z,69.55
2019-03-30T01:29:49.918Z,69.61
2019-03-30T01:32:38.136Z,69.95
2019-03-30T01:35:26.535Z,69.49
2019-03-30T01:38:00.617Z,68.97
2019-03-30T01:40:34.771Z,68.90
2019-03-30T01:43:08.811Z,69.07
2019-03-30T01:45:57.241Z,68.38
2019-03-30T01:48:31.380Z,68.96
2019-03-30T01:51:05.390Z,70.03
2019-03-30T01:53:39.372Z,69.40
2019-03-30T01:56:27.675Z,69.32
2019-03-30T01:59:15.891Z,69.30
2019-03-30T02:02:00.126Z,69.43
2019-03-30T02:04:48.373Z,69.27
2019-03-30T02:07:36.583Z,69.56
2019-03-30T02:10:44.269Z,69.98
2019-03-30T02:13:18.269Z,69.59
2019-03-30T02:15:52.262Z,69.58
2019-03-30T02:18:26.566Z,69.28
2019-03-30T02:20:58.882Z,69.20
2019-03-30T02:23:31.118Z,69.20
2019-03-30T02:26:03.415Z,69.33
2019-03-30T02:28:35.653Z,69.62
2019-03-30T02:31:07.869Z,69.19
2019-03-30T02:33:40.007Z,69.59
2019-03-30T02:36:12.333Z,69.92
2019-03-30T02:38:44.501Z,69.36
2019-03-30T02:41:16.753Z,69.01
2019-03-30T02:43:48.971Z,68.78
2019-03-30T02:46:21.328Z,68.84
2019-03-30T02:48:53.637Z,69.98
2019-03-30T02:51:25.770Z,70.04
2019-03-30T02:53:57.993Z,69.53
2019-03-30T02:56:30.277Z,69.95
2019-03-30T02:59:02.437Z,69.75
2019-03-30T03:01:34.650Z,69.77
2019-03-30T03:04:06.853Z,69.80
2019-03-30T03:06:40.510Z,69.57
2019-03-30T03:09:12.896Z,69.82
2019-03-30T03:11:45.096Z,70.21
2019-03-30T03:14:17.230Z,70.48
2019-03-30T03:16:49.456Z,70.41
2019-03-30T03:19:21.681Z,70.14
2019-03-30T03:21:53.829Z,70.35
2019-03-30T03:24:25.996Z,70.44
2019-03-30T03:26:58.178Z,70.19
2019-03-30T03:29:30.326Z,70.26
2019-03-30T03:32:02.474Z,70.18
2019-03-30T03:34:34.698Z,70.23
2019-03-30T03:37:07.008Z,70.26
2019-03-30T03:39:39.248Z,70.56
2019-03-30T03:42:11.414Z,70.34
2019-03-30T03:44:43.621Z,69.89
2019-03-30T03:47:15.755Z,69.96
2019-03-30T03:49:47.971Z,69.65
2019-03-30T03:52:20.115Z,69.49
2019-03-30T03:54:52.329Z,69.70
2019-03-30T03:57:24.857Z,69.97
2019-03-30T03:59:57.466Z,69.86
2019-03-30T04:02:34.785Z,69.62
2019-03-30T04:05:08.315Z,69.17
2019-03-30T04:07:43.577Z,69.25
2019-03-30T04:10:15.789Z,69.25
2019-03-30T04:12:47.941Z,69.31
2019-03-30T04:15:26.040Z,69.31
2019-03-30T04:17:58.186Z,69.15
2019-03-30T04:20:30.519Z,69.61
2019-03-30T04:23:02.662Z,70.07
2019-03-30T04:25:34.821Z,70.36
2019-03-30T04:28:07.035Z,70.01
2019-03-30T04:30:39.283Z,69.96
2019-03-30T04:33:11.430Z,69.75
2019-03-30T04:35:43.579Z,69.68
2019-03-30T04:38:15.813Z,69.62
2019-03-30T04:40:48.019Z,69.67
2019-03-30T04:43:20.270Z,69.48
2019-03-30T04:45:52.580Z,69.19
2019-03-30T04:48:24.855Z,69.27
2019-03-30T04:50:57.341Z,69.75
2019-03-30T04:53:29.564Z,69.78
2019-03-30T04:56:01.866Z,69.80
2019-03-30T04:58:34.171Z,69.67
2019-03-30T05:01:07.281Z,69.85
2019-03-30T05:03:40.587Z,69.67
2019-03-30T05:06:12.837Z,69.51
2019-03-30T05:08:45.047Z,69.85
2019-03-30T05:11:17.243Z,70.35
2019-03-30T05:13:49.475Z,70.50
2019-03-30T05:16:21.727Z,70.53
2019-03-30T05:18:55.290Z,70.74
2019-03-30T05:21:27.777Z,71.18
2019-03-30T05:24:00.292Z,71.12
2019-03-30T05:26:33.502Z,70.67
2019-03-30T05:29:05.731Z,70.68
2019-03-30T05:31:37.994Z,70.60
2019-03-30T05:34:10.202Z,70.61
2019-03-30T05:36:42.429Z,70.77
2019-03-30T05:39:14.584Z,71.02
2019-03-30T05:41:46.897Z,70.78
2019-03-30T05:44:19.220Z,70.40
2019-03-30T05:46:51.496Z,70.63
2019-03-30T05:49:23.753Z,70.71
2019-03-30T05:51:56.165Z,71.24
2019-03-30T05:54:28.409Z,71.25
2019-03-30T05:57:00.656Z,71.36
2019-03-30T05:59:32.968Z,71.85
2019-03-30T06:02:05.213Z,71.66
2019-03-30T06:04:37.464Z,71.68
2019-03-30T06:07:09.631Z,71.88
2019-03-30T06:09:41.954Z,72.37
2019-03-30T06:12:14.207Z,72.07
2019-03-30T06:14:46.559Z,72.53
2019-03-30T06:17:18.715Z,72.91
2019-03-30T06:19:50.960Z,73.45
2019-03-30T06:22:23.120Z,74.09
2019-03-30T06:24:55.336Z,74.18
2019-03-30T06:27:27.859Z,74.20
2019-03-30T06:30:19.558Z,75.10
2019-03-30T06:32:51.777Z,74.37
2019-03-30T06:35:23.919Z,74.26
2019-03-30T06:37:56.130Z,74.07
2019-03-30T06:40:28.269Z,74.00
2019-03-30T06:43:00.414Z,74.10
2019-03-30T06:45:32.659Z,74.44
2019-03-30T06:48:04.791Z,76.00
2019-03-30T06:50:37.043Z,75.61
2019-03-30T06:53:09.260Z,75.92
2019-03-30T06:55:41.401Z,75.84
2019-03-30T06:58:13.549Z,76.11
2019-03-30T07:00:45.852Z,75.69
2019-03-30T07:03:17.996Z,75.32
2019-03-30T07:05:50.143Z,75.19
2019-03-30T07:08:22.274Z,74.83
2019-03-30T07:10:54.490Z,74.89
2019-03-30T07:13:26.735Z,74.41
2019-03-30T07:15:58.866Z,74.24
2019-03-30T07:18:31.028Z,74.14
2019-03-30T07:21:03.157Z,73.55
2019-03-30T07:23:35.394Z,73.42
2019-03-30T07:26:07.541Z,73.08
2019-03-30T07:28:39.749Z,73.03
2019-03-30T07:31:11.884Z,72.72
2019-03-30T07:33:44.018Z,72.92
2019-03-30T07:36:16.267Z,72.36
2019-03-30T07:38:48.490Z,72.55
2019-03-30T07:41:20.613Z,71.85
2019-03-30T07:43:52.944Z,71.69
2019-03-30T07:46:25.080Z,71.18
2019-03-30T07:48:57.812Z,71.07
2019-03-30T07:51:33.287Z,70.55
2019-03-30T07:54:04.135Z,70.30
2019-03-30T07:56:36.335Z,69.83
2019-03-30T07:59:08.523Z,69.73
2019-03-30T08:01:40.662Z,68.95
2019-03-30T08:04:12.870Z,68.62
2019-03-30T08:06:45.033Z,69.03
2019-03-30T08:09:17.173Z,67.44
2019-03-30T08:11:49.609Z,67.17
2019-03-30T08:14:21.844Z,66.99
2019-03-30T08:16:54.005Z,65.56
2019-03-30T08:19:26.161Z,65.08
2019-03-30T08:21:58.405Z,64.38
2019-03-30T08:24:30.602Z,63.61
2019-03-30T08:27:02.786Z,63.30
2019-03-30T08:29:35.020Z,63.28
2019-03-30T08:32:07.229Z,61.36
2019-03-30T08:34:39.376Z,61.25
2019-03-30T08:37:11.725Z,60.68
2019-03-30T08:39:43.980Z,60.33
2019-03-30T08:42:16.140Z,59.72
2019-03-30T08:44:48.304Z,60.73
2019-03-30T08:47:20.469Z,58.60
2019-03-30T08:49:52.698Z,58.59
2019-03-30T08:52:24.940Z,58.07
2019-03-30T08:54:57.357Z,58.21
2019-03-30T08:57:29.596Z,57.16
2019-03-30T09:00:01.941Z,57.46
2019-03-30T09:02:35.655Z,57.16
2019-03-30T09:05:08.799Z,56.43
2019-03-30T09:07:41.044Z,55.93
2019-03-30T09:10:13.269Z,56.19
2019-03-30T09:12:45.491Z,55.20
2019-03-30T09:15:17.815Z,53.99
2019-03-30T09:17:50.019Z,54.35
2019-03-30T09:20:22.171Z,53.82
2019-03-30T09:22:54.518Z,53.71
2019-03-30T09:25:26.691Z,52.99
2019-03-30T09:27:58.929Z,53.24
2019-03-30T09:30:31.153Z,52.75
2019-03-30T09:33:03.389Z,52.67
2019-03-30T09:35:36.595Z,51.56
2019-03-30T09:38:08.759Z,51.78
2019-03-30T09:40:40.981Z,51.13
2019-03-30T09:43:13.208Z,51.62
2019-03-30T09:45:45.430Z,51.09
2019-03-30T09:48:17.584Z,50.23
2019-03-30T09:50:50.704Z,50.23
2019-03-30T09:53:22.860Z,49.63
2019-03-30T09:55:55.079Z,50.17
2019-03-30T09:58:27.498Z,49.21
2019-03-30T10:00:59.935Z,47.69
2019-03-30T10:03:32.139Z,48.05
2019-03-30T10:06:04.367Z,48.09
2019-03-30T10:08:36.517Z,48.09
2019-03-30T10:11:08.733Z,47.92
2019-03-30T10:13:40.952Z,46.62
2019-03-30T10:16:13.198Z,45.91
2019-03-30T10:18:45.359Z,46.34
2019-03-30T10:21:17.572Z,46.30
2019-03-30T10:23:49.785Z,46.27
2019-03-30T10:26:21.944Z,46.63
2019-03-30T10:28:54.097Z,45.39
2019-03-30T10:31:26.760Z,43.93
2019-03-30T10:33:59.126Z,44.27
2019-03-30T10:36:31.262Z,44.79
2019-03-30T10:39:03.412Z,44.22
2019-03-30T10:41:35.837Z,43.41
2019-03-30T10:44:08.954Z,43.42
2019-03-30T10:46:41.118Z,42.63
2019-03-30T10:49:13.442Z,43.53
2019-03-30T10:51:45.857Z,43.14
2019-03-30T10:54:18.015Z,43.23
2019-03-30T10:56:50.271Z,43.49
2019-03-30T10:59:22.414Z,42.94
2019-03-30T11:01:54.881Z,42.67
2019-03-30T11:04:27.018Z,42.02
2019-03-30T11:07:00.041Z,42.06
2019-03-30T11:09:32.307Z,41.53
2019-03-30T11:12:04.621Z,42.41
2019-03-30T11:14:36.851Z,42.61
2019-03-30T11:17:09.026Z,41.76
2019-03-30T11:19:41.162Z,41.09
2019-03-30T11:22:13.372Z,41.17
2019-03-30T11:24:45.620Z,40.14
2019-03-30T11:27:17.777Z,39.88
2019-03-30T11:29:50.004Z,40.04
2019-03-30T11:32:23.103Z,39.83
2019-03-30T11:34:55.247Z,38.87
2019-03-30T11:37:27.571Z,38.73
2019-03-30T11:39:59.719Z,38.43
2019-03-30T11:42:31.861Z,37.85
2019-03-30T11:45:04.087Z,37.46
2019-03-30T11:47:36.311Z,38.62
2019-03-30T11:50:08.677Z,37.72
2019-03-30T11:52:40.824Z,36.99
2019-03-30T11:55:21.714Z,38.02
2019-03-30T11:57:46.884Z,37.82
2019-03-30T12:00:19.100Z,37.39
2019-03-30T12:02:51.316Z,38.43
2019-03-30T12:05:23.805Z,37.00
2019-03-30T12:07:55.953Z,37.36
2019-03-30T12:10:28.105Z,37.13
2019-03-30T12:13:00.478Z,37.21
2019-03-30T12:15:32.780Z,36.78
2019-03-30T12:18:04.995Z,38.09
2019-03-30T12:20:37.215Z,37.80
2019-03-30T12:23:09.453Z,36.32
2019-03-30T12:25:41.847Z,35.43
2019-03-30T12:28:14.179Z,36.85
2019-03-30T12:30:46.385Z,38.42
2019-03-30T12:33:18.540Z,38.07
2019-03-30T12:35:50.790Z,38.25
2019-03-30T12:38:23.020Z,38.97
2019-03-30T12:40:55.200Z,38.91
2019-03-30T12:43:27.579Z,39.18
2019-03-30T12:45:59.738Z,38.38
2019-03-30T12:48:32.110Z,37.71
2019-03-30T12:51:04.269Z,38.02
2019-03-30T12:53:49.570Z,38.61
2019-03-30T12:56:10.328Z,38.92
2019-03-30T12:58:42.481Z,37.68
2019-03-30T13:01:15.736Z,37.92
2019-03-30T13:03:47.946Z,37.67
2019-03-30T13:06:20.284Z,38.08
2019-03-30T13:08:52.460Z,39.12
2019-03-30T13:11:25.873Z,38.52
2019-03-30T13:13:58.401Z,37.88
2019-03-30T13:16:30.551Z,38.41
2019-03-30T13:19:02.746Z,38.78
2019-03-30T13:21:34.911Z,38.82
2019-03-30T13:24:07.070Z,38.29
2019-03-30T13:26:39.219Z,39.12
2019-03-30T13:29:11.434Z,39.01
2019-03-30T13:31:43.583Z,38.78
2019-03-30T13:34:15.734Z,38.42
2019-03-30T13:36:47.841Z,38.90
2019-03-30T13:39:20.002Z,38.87
2019-03-30T13:41:52.154Z,39.22
2019-03-30T13:44:24.275Z,39.41
2019-03-30T13:46:56.835Z,38.97
2019-03-30T13:49:29.771Z,40.38
2019-03-30T13:52:02.238Z,40.30
2019-03-30T13:54:34.547Z,38.95
2019-03-30T13:57:06.794Z,39.35
2019-03-30T13:59:39.010Z,39.62
2019-03-30T14:02:11.164Z,39.13
2019-03-30T14:04:43.366Z,39.19
2019-03-30T14:07:15.580Z,39.19
2019-03-30T14:09:48.142Z,39.55
2019-03-30T14:12:20.384Z,39.46
2019-03-30T14:14:52.533Z,39.22
2019-03-30T14:17:25.203Z,38.43
2019-03-30T14:19:57.663Z,37.96
2019-03-30T14:22:29.822Z,37.49
2019-03-30T14:25:02.062Z,37.37
2019-03-30T14:27:34.267Z,37.56
2019-03-30T14:30:06.876Z,37.23
2019-03-30T14:32:39.085Z,37.48
2019-03-30T14:35:11.318Z,36.33
2019-03-30T14:37:44.552Z,36.68
2019-03-30T14:40:16.854Z,36.68
2019-03-30T14:42:49.071Z,36.75
2019-03-30T14:45:21.310Z,37.10
2019-03-30T14:47:54.017Z,36.98
2019-03-30T14:50:26.161Z,37.18
2019-03-30T14:52:58.391Z,36.54
2019-03-30T14:55:30.671Z,36.14
2019-03-30T14:58:02.851Z,36.25
2019-03-30T15:00:35.137Z,36.62
2019-03-30T15:03:07.528Z,36.74
2019-03-30T15:05:41.302Z,37.17
2019-03-30T15:08:13.521Z,34.83
2019-03-30T15:10:45.759Z,33.64
2019-03-30T15:13:17.997Z,34.60
2019-03-30T15:15:50.228Z,34.47
2019-03-30T15:18:22.434Z,34.06
2019-03-30T15:20:55.202Z,34.37
2019-03-30T15:23:27.577Z,35.32
2019-03-30T15:25:59.895Z,34.53
2019-03-30T15:28:32.403Z,34.78
2019-03-30T15:31:04.782Z,34.34
2019-03-30T15:33:37.042Z,33.78
2019-03-30T15:36:09.290Z,33.80
2019-03-30T15:38:41.695Z,33.87
2019-03-30T15:41:14.148Z,33.38
2019-03-30T15:43:46.576Z,33.15
2019-03-30T15:46:20.354Z,31.61
2019-03-30T15:48:53.076Z,31.59
2019-03-30T15:51:25.223Z,30.52
2019-03-30T15:53:58.308Z,30.06
2019-03-30T15:56:32.057Z,30.07
2019-03-30T15:59:04.907Z,30.14
2019-03-30T16:01:39.166Z,30.27
2019-03-30T16:04:12.346Z,29.91
2019-03-30T16:06:44.986Z,29.57
2019-03-30T16:09:17.772Z,29.87
2019-03-30T16:11:50.483Z,30.02
2019-03-30T16:14:23.248Z,30.22
2019-03-30T16:16:56.682Z,30.28
2019-03-30T16:19:29.161Z,30.42
2019-03-30T16:22:01.310Z,30.48
2019-03-30T16:24:34.529Z,31.44
2019-03-30T16:27:06.694Z,31.41
2019-03-30T16:29:38.900Z,31.70
2019-03-30T16:32:11.122Z,31.95
2019-03-30T16:34:43.285Z,31.89
2019-03-30T16:37:15.446Z,32.38
2019-03-30T16:39:47.594Z,32.48
2019-03-30T16:42:19.825Z,32.83
2019-03-30T16:44:51.963Z,33.21
2019-03-30T16:47:24.111Z,34.31
2019-03-30T16:49:57.597Z,35.51
2019-03-30T16:52:29.819Z,36.54
2019-03-30T16:55:02.088Z,37.21
2019-03-30T16:57:43.070Z,38.13
2019-03-30T17:00:08.533Z,38.68
2019-03-30T17:02:40.770Z,40.06
2019-03-30T17:05:12.942Z,39.54
2019-03-30T17:07:45.154Z,40.38
2019-03-30T17:10:17.402Z,42.11
2019-03-30T17:12:49.624Z,42.83
2019-03-30T17:15:21.865Z,43.78
2019-03-30T17:17:54.087Z,43.30
2019-03-30T17:20:26.258Z,42.70
2019-03-30T17:22:59.036Z,43.14
2019-03-30T17:25:32.311Z,43.25
2019-03-30T17:28:06.895Z,43.51
2019-03-30T17:30:38.530Z,44.49
2019-03-30T17:33:10.765Z,46.63
2019-03-30T17:35:42.996Z,45.81
2019-03-30T17:38:15.222Z,45.84
2019-03-30T17:40:47.448Z,47.02
2019-03-30T17:43:19.706Z,46.87
2019-03-30T17:45:51.865Z,47.44
2019-03-30T17:48:24.170Z,48.55
2019-03-30T17:50:58.125Z,48.89
2019-03-30T17:53:30.342Z,48.50
2019-03-30T17:56:02.579Z,48.82
2019-03-30T17:58:34.811Z,48.98
2019-03-30T18:01:07.102Z,50.19
2019-03-30T18:03:39.335Z,51.79
2019-03-30T18:06:11.507Z,50.91
2019-03-30T18:08:44.537Z,50.43
2019-03-30T18:11:16.919Z,50.50
2019-03-30T18:13:49.092Z,50.70
2019-03-30T18:16:22.501Z,51.20
2019-03-30T18:18:55.355Z,51.10
2019-03-30T18:21:28.073Z,52.02
2019-03-30T18:24:00.296Z,51.85
2019-03-30T18:26:32.554Z,52.04
2019-03-30T18:29:05.276Z,52.89
2019-03-30T18:31:37.494Z,53.53
2019-03-30T18:34:09.783Z,53.60
2019-03-30T18:36:44.929Z,53.60
2019-03-30T18:39:18.238Z,53.56
2019-03-30T18:41:52.647Z,54.03
2019-03-30T18:44:25.669Z,54.51
2019-03-30T18:47:00.510Z,54.91
2019-03-30T18:49:32.890Z,55.43
2019-03-30T18:52:06.973Z,56.09
2019-03-30T18:54:39.819Z,55.32
2019-03-30T18:57:12.061Z,55.97
2019-03-30T18:59:44.400Z,56.74
2019-03-30T19:02:19.108Z,56.91
2019-03-30T19:04:50.551Z,57.23
2019-03-30T19:07:22.796Z,56.88
2019-03-30T19:09:55.658Z,56.83
2019-03-30T19:12:28.273Z,57.01
2019-03-30T19:15:01.053Z,56.83
2019-03-30T19:17:33.633Z,57.94
2019-03-30T19:20:07.555Z,57.71
2019-03-30T19:22:40.190Z,58.42
2019-03-30T19:25:12.371Z,59.23
2019-03-30T19:27:44.907Z,58.90
2019-03-30T19:30:17.468Z,59.65
2019-03-30T19:32:50.209Z,59.81
2019-03-30T19:35:22.444Z,60.39
2019-03-30T19:37:54.627Z,60.91
2019-03-30T19:40:27.092Z,60.32
2019-03-30T19:42:59.437Z,60.63
2019-03-30T19:45:31.609Z,61.44
2019-03-30T19:48:03.782Z,61.01
2019-03-30T19:50:35.971Z,60.21
2019-03-30T19:53:08.202Z,60.49
2019-03-30T19:55:40.447Z,60.30
2019-03-30T19:58:12.619Z,59.89
2019-03-30T20:00:44.935Z,59.66
2019-03-30T20:03:17.184Z,60.00
2019-03-30T20:05:49.417Z,60.84
2019-03-30T20:08:21.705Z,61.49
2019-03-30T20:10:54.482Z,61.22
2019-03-30T20:13:27.457Z,61.04
2019-03-30T20:15:59.994Z,61.82
2019-03-30T20:18:32.160Z,61.85
2019-03-30T20:21:04.396Z,62.11
2019-03-30T20:23:36.890Z,62.19
2019-03-30T20:26:09.135Z,62.91
2019-03-30T20:28:41.366Z,62.59
2019-03-30T20:31:14.026Z,62.66
2019-03-30T20:33:46.554Z,62.90
2019-03-30T20:36:19.037Z,63.33
2019-03-30T20:38:51.821Z,62.55
2019-03-30T20:41:24.584Z,62.22
2019-03-30T20:43:56.809Z,61.67
2019-03-30T20:46:29.430Z,61.36
2019-03-30T20:49:02.219Z,61.48
2019-03-30T20:51:35.464Z,61.70
2019-03-30T20:54:07.720Z,62.24
2019-03-30T20:56:39.899Z,62.51
2019-03-30T20:59:12.242Z,61.81
2019-03-30T21:01:44.557Z,61.79
2019-03-30T21:04:17.245Z,61.46
2019-03-30T21:06:49.412Z,61.93
2019-03-30T21:09:21.729Z,61.95
2019-03-30T21:11:54.491Z,62.15
2019-03-30T21:14:26.733Z,62.19
2019-03-30T21:16:59.096Z,62.23
2019-03-30T21:19:31.300Z,62.45
2019-03-30T21:22:03.696Z,62.85
2019-03-30T21:24:36.249Z,63.27
2019-03-30T21:27:09.011Z,62.95
2019-03-30T21:29:54.073Z,62.96
2019-03-30T21:32:16.157Z,63.08
2019-03-30T21:34:48.896Z,63.06
2019-03-30T21:37:21.534Z,62.93
2019-03-30T21:39:53.702Z,63.20
2019-03-30T21:42:27.410Z,63.37
2019-03-30T21:45:00.530Z,63.25
2019-03-30T21:47:32.870Z,63.32
2019-03-30T21:50:05.476Z,63.13
2019-03-30T21:52:38.312Z,63.17
2019-03-30T21:55:10.736Z,63.17
2019-03-30T21:57:43.145Z,62.95
2019-03-30T22:00:19.621Z,63.15
2019-03-30T22:02:52.155Z,63.14
2019-03-30T22:05:24.592Z,63.58
2019-03-30T22:07:57.421Z,63.73
2019-03-30T22:10:29.638Z,64.23
2019-03-30T22:13:01.799Z,64.54
2019-03-30T22:15:34.064Z,64.32
2019-03-30T22:18:06.433Z,64.75
2019-03-30T22:20:39.389Z,65.13
2019-03-30T22:23:12.061Z,65.38
2019-03-30T22:25:44.651Z,64.51
2019-03-30T22:28:16.888Z,64.03
2019-03-30T22:30:49.594Z,63.80
2019-03-30T22:33:22.091Z,63.88
2019-03-30T22:35:54.573Z,63.96
2019-03-30T22:38:27.359Z,63.49
2019-03-30T22:40:59.593Z,63.72
2019-03-30T22:43:32.315Z,64.27
2019-03-30T22:46:07.419Z,64.71
2019-03-30T22:48:39.047Z,64.74
2019-03-30T22:51:12.183Z,64.53
2019-03-30T22:53:44.781Z,64.72
2019-03-30T22:56:17.724Z,64.55
2019-03-30T22:58:49.894Z,64.63
2019-03-30T23:01:23.103Z,64.68
2019-03-30T23:03:56.703Z,65.17
2019-03-30T23:06:28.873Z,65.53
2019-03-30T23:09:01.296Z,65.65
2019-03-30T23:11:35.143Z,65.27
2019-03-30T23:14:07.964Z,65.23
2019-03-30T23:16:40.584Z,64.94
2019-03-30T23:19:12.818Z,64.77
2019-03-30T23:21:45.281Z,64.85
2019-03-30T23:24:17.598Z,65.26
2019-03-30T23:26:49.975Z,65.38
2019-03-30T23:29:22.496Z,65.20
2019-03-30T23:31:54.881Z,65.96
2019-03-30T23:34:27.842Z,65.71
2019-03-30T23:37:00.552Z,65.42
2019-03-30T23:39:32.864Z,65.28
2019-03-30T23:42:05.094Z,65.37
2019-03-30T23:44:37.974Z,65.51
2019-03-30T23:47:10.334Z,65.68
2019-03-30T23:49:42.964Z,65.70
2019-03-30T23:52:15.103Z,65.85
2019-03-30T23:54:47.915Z,65.36
2019-03-30T23:57:20.301Z,65.55
2019-03-30T23:59:52.522Z,65.10
